createdAt,value
2018-10-19T00:01:34.897Z,31.87
2018-10-19T00:04:04.026Z,34.23
2018-10-19T00:06:33.090Z,42.57
2018-10-19T00:09:02.246Z,37.50
2018-10-19T00:11:31.217Z,37.53
2018-10-19T00:14:00.277Z,35.40
2018-10-19T00:16:29.354Z,35.80
2018-10-19T00:18:58.448Z,43.13
2018-10-19T00:21:27.456Z,45.90
2018-10-19T00:23:56.566Z,43.07
2018-10-19T00:26:25.883Z,40.43
2018-10-19T00:28:54.920Z,48.57
2018-10-19T00:31:23.838Z,45.57
2018-10-19T00:33:53.021Z,40.87
2018-10-19T00:36:22.014Z,47.60
2018-10-19T00:38:51.140Z,44.07
2018-10-19T00:41:20.153Z,43.80
2018-10-19T00:43:49.196Z,49.13
2018-10-19T00:46:18.322Z,47.50
2018-10-19T00:48:48.030Z,46.63
2018-10-19T00:51:17.204Z,46.83
2018-10-19T00:53:46.292Z,42.83
2018-10-19T00:56:15.231Z,42.30
2018-10-19T00:58:44.257Z,46.03
2018-10-19T01:01:13.362Z,46.40
2018-10-19T01:03:42.494Z,43.30
2018-10-19T01:06:11.600Z,44.60
2018-10-19T01:08:40.661Z,41.20
2018-10-19T01:11:09.995Z,42.33
2018-10-19T01:13:39.063Z,43.13
2018-10-19T01:16:08.094Z,39.40
2018-10-19T01:18:37.236Z,41.30
2018-10-19T01:21:06.471Z,41.93
2018-10-19T01:23:35.599Z,42.93
2018-10-19T01:26:04.646Z,40.30
2018-10-19T01:28:33.939Z,41.50
2018-10-19T01:31:03.012Z,46.20
2018-10-19T01:33:32.179Z,38.73
2018-10-19T01:36:01.221Z,42.00
2018-10-19T01:38:30.343Z,40.43
2018-10-19T01:40:59.364Z,39.73
2018-10-19T01:43:29.039Z,44.77
2018-10-19T01:45:58.642Z,44.90
2018-10-19T01:48:28.285Z,42.93
2018-10-19T01:50:57.985Z,45.87
2018-10-19T01:53:27.098Z,44.03
2018-10-19T01:55:56.327Z,42.67
2018-10-19T01:58:25.584Z,47.80
2018-10-19T02:00:54.578Z,43.00
2018-10-19T02:03:23.670Z,41.83
2018-10-19T02:05:52.764Z,41.40
2018-10-19T02:08:21.842Z,40.83
2018-10-19T02:10:50.913Z,44.90
2018-10-19T02:13:19.974Z,41.37
2018-10-19T02:15:49.035Z,43.57
2018-10-19T02:18:18.633Z,41.43
2018-10-19T02:20:47.672Z,43.60
2018-10-19T02:23:16.726Z,41.70
2018-10-19T02:25:45.760Z,42.87
2018-10-19T02:28:15.018Z,41.80
2018-10-19T02:30:44.110Z,40.93
2018-10-19T02:33:13.212Z,45.93
2018-10-19T02:35:42.292Z,44.70
2018-10-19T02:38:11.579Z,41.53
2018-10-19T02:40:40.646Z,46.47
2018-10-19T02:43:09.872Z,44.27
2018-10-19T02:45:42.696Z,45.53
2018-10-19T02:48:12.324Z,46.47
2018-10-19T02:50:41.393Z,47.43
2018-10-19T02:53:10.453Z,49.17
2018-10-19T02:55:39.445Z,46.10
2018-10-19T02:58:08.523Z,42.73
2018-10-19T03:00:37.734Z,47.80
2018-10-19T03:03:06.825Z,49.40
2018-10-19T03:05:35.840Z,44.13
2018-10-19T03:08:05.024Z,42.60
2018-10-19T03:10:34.056Z,50.47
2018-10-19T03:13:03.701Z,44.23
2018-10-19T03:15:32.795Z,45.90
2018-10-19T03:18:01.860Z,42.60
2018-10-19T03:20:31.114Z,42.33
2018-10-19T03:23:00.198Z,43.40
2018-10-19T03:25:29.208Z,45.30
2018-10-19T03:27:58.130Z,40.87
2018-10-19T03:30:27.177Z,45.50
2018-10-19T03:32:56.212Z,43.10
2018-10-19T03:35:25.201Z,45.03
2018-10-19T03:37:54.322Z,42.03
2018-10-19T03:40:23.308Z,43.63
2018-10-19T03:42:52.367Z,43.27
2018-10-19T03:45:21.687Z,39.03
2018-10-19T03:47:51.069Z,39.53
2018-10-19T03:50:20.115Z,38.47
2018-10-19T03:52:49.235Z,35.73
2018-10-19T03:55:18.382Z,38.97
2018-10-19T03:57:47.487Z,37.83
2018-10-19T04:00:16.585Z,37.60
2018-10-19T04:02:46.874Z,41.93
2018-10-19T04:05:16.003Z,39.50
2018-10-19T04:07:45.234Z,40.23
2018-10-19T04:10:14.209Z,41.17
2018-10-19T04:12:43.350Z,39.80
2018-10-19T04:15:12.583Z,42.70
2018-10-19T04:17:41.740Z,41.03
2018-10-19T04:20:10.782Z,42.47
2018-10-19T04:22:39.810Z,36.17
2018-10-19T04:25:08.563Z,37.27
2018-10-19T04:27:38.538Z,40.27
2018-10-19T04:30:07.783Z,36.57
2018-10-19T04:32:36.933Z,36.50
2018-10-19T04:35:06.438Z,34.60
2018-10-19T04:37:35.628Z,34.83
2018-10-19T04:40:05.166Z,39.30
2018-10-19T04:42:34.334Z,39.20
2018-10-19T04:45:03.585Z,34.60
2018-10-19T04:47:32.689Z,36.17
2018-10-19T04:50:01.878Z,35.57
2018-10-19T04:52:30.930Z,37.37
2018-10-19T04:54:59.978Z,33.67
2018-10-19T04:57:29.073Z,37.63
2018-10-19T04:59:58.239Z,37.30
2018-10-19T05:02:27.468Z,37.30
2018-10-19T05:04:56.463Z,34.17
2018-10-19T05:07:25.805Z,34.93
2018-10-19T05:09:55.533Z,36.67
2018-10-19T05:12:24.694Z,33.90
2018-10-19T05:14:53.683Z,35.13
2018-10-19T05:17:22.762Z,34.57
2018-10-19T05:19:52.173Z,35.27
2018-10-19T05:22:21.204Z,34.07
2018-10-19T05:24:50.320Z,33.33
2018-10-19T05:27:19.279Z,34.73
2018-10-19T05:29:48.534Z,34.03
2018-10-19T05:32:17.745Z,34.40
2018-10-19T05:34:46.746Z,37.60
2018-10-19T05:37:15.844Z,35.67
2018-10-19T05:39:44.964Z,32.63
2018-10-19T05:42:14.070Z,34.03
2018-10-19T05:44:43.086Z,33.53
2018-10-19T05:47:12.230Z,32.10
2018-10-19T05:49:41.271Z,28.13
2018-10-19T05:52:10.384Z,31.40
2018-10-19T05:54:39.429Z,31.77
2018-10-19T05:57:08.581Z,29.13
2018-10-19T05:59:37.642Z,31.23
2018-10-19T06:02:06.979Z,38.33
2018-10-19T06:04:35.938Z,31.83
2018-10-19T06:07:05.142Z,36.47
2018-10-19T06:09:34.173Z,34.67
2018-10-19T06:12:03.426Z,32.77
2018-10-19T06:14:32.424Z,31.97
2018-10-19T06:17:01.663Z,30.83
2018-10-19T06:19:30.613Z,29.87
2018-10-19T06:21:59.743Z,27.23
2018-10-19T06:24:28.862Z,26.53
2018-10-19T06:26:57.911Z,31.23
2018-10-19T06:29:27.043Z,29.60
2018-10-19T06:31:56.284Z,31.87
2018-10-19T06:34:25.280Z,28.47
2018-10-19T06:36:54.321Z,30.70
2018-10-19T06:39:23.474Z,33.57
2018-10-19T06:41:52.679Z,31.30
2018-10-19T06:44:22.075Z,32.23
2018-10-19T06:46:51.287Z,33.97
2018-10-19T06:49:20.323Z,32.07
2018-10-19T06:51:49.356Z,35.77
2018-10-19T06:54:18.462Z,32.33
2018-10-19T06:56:47.491Z,40.00
2018-10-19T06:59:16.531Z,34.80
2018-10-19T07:01:45.708Z,37.90
2018-10-19T07:04:14.942Z,36.83
2018-10-19T07:06:44.151Z,37.43
2018-10-19T07:09:13.428Z,40.23
2018-10-19T07:11:42.425Z,42.07
2018-10-19T07:14:11.510Z,37.33
2018-10-19T07:16:40.395Z,37.20
2018-10-19T07:19:09.513Z,34.63
2018-10-19T07:21:38.615Z,34.17
2018-10-19T07:24:07.793Z,36.23
2018-10-19T07:26:36.891Z,34.10
2018-10-19T07:29:05.971Z,32.20
2018-10-19T07:31:35.179Z,30.30
2018-10-19T07:34:04.296Z,31.77
2018-10-19T07:36:33.518Z,31.13
2018-10-19T07:39:02.561Z,32.20
2018-10-19T07:41:31.701Z,31.30
2018-10-19T07:44:00.812Z,30.87
2018-10-19T07:46:29.888Z,33.13
2018-10-19T07:48:59.020Z,30.27
2018-10-19T07:51:28.165Z,32.63
2018-10-19T07:53:58.382Z,28.37
2018-10-19T07:56:27.464Z,31.27
2018-10-19T07:58:56.525Z,28.60
2018-10-19T08:01:25.520Z,31.83
2018-10-19T08:03:54.647Z,32.17
2018-10-19T08:06:23.697Z,29.70
2018-10-19T08:08:52.909Z,29.10
2018-10-19T08:11:22.094Z,30.33
2018-10-19T08:13:51.402Z,28.40
2018-10-19T08:16:20.570Z,28.63
2018-10-19T08:18:50.386Z,27.00
2018-10-19T08:21:19.400Z,27.73
2018-10-19T08:23:48.492Z,31.20
2018-10-19T08:26:17.702Z,29.80
2018-10-19T08:28:46.781Z,30.47
2018-10-19T08:31:16.058Z,28.03
2018-10-19T08:33:45.161Z,28.30
2018-10-19T08:36:14.293Z,28.93
2018-10-19T08:38:43.513Z,29.73
2018-10-19T08:41:12.704Z,29.83
2018-10-19T08:43:48.357Z,30.43
2018-10-19T08:46:22.704Z,28.60
2018-10-19T08:48:51.806Z,27.37
2018-10-19T08:51:20.934Z,29.10
2018-10-19T08:53:50.276Z,27.53
2018-10-19T08:56:20.029Z,29.50
2018-10-19T08:58:49.128Z,28.40
2018-10-19T09:01:18.376Z,27.93
2018-10-19T09:03:47.779Z,28.43
2018-10-19T09:06:17.065Z,28.27
2018-10-19T09:08:46.153Z,29.70
2018-10-19T09:11:16.057Z,27.37
2018-10-19T09:13:46.288Z,25.47
2018-10-19T09:16:15.527Z,24.40
2018-10-19T09:18:44.932Z,23.93
2018-10-19T09:21:14.191Z,26.27
2018-10-19T09:23:43.607Z,24.47
2018-10-19T09:26:12.679Z,22.80
2018-10-19T09:31:07.121Z,24.93
2018-10-19T09:33:36.185Z,23.47
2018-10-19T09:36:05.292Z,24.50
2018-10-19T09:38:34.526Z,23.37
2018-10-19T09:41:03.668Z,20.67
2018-10-19T09:43:32.695Z,21.37
2018-10-19T09:46:01.795Z,22.90
2018-10-19T09:48:30.845Z,21.40
2018-10-19T09:51:00.608Z,20.40
2018-10-19T09:53:30.139Z,21.97
2018-10-19T09:55:59.248Z,23.53
2018-10-19T09:58:28.329Z,20.53
2018-10-19T10:00:58.064Z,22.10
2018-10-19T10:03:27.545Z,17.03
2018-10-19T10:05:56.704Z,18.17
2018-10-19T10:08:32.088Z,19.63
2018-10-19T10:11:01.170Z,19.17
2018-10-19T10:13:30.134Z,19.73
2018-10-19T10:15:59.195Z,19.87
2018-10-19T10:18:28.243Z,19.47
2018-10-19T10:20:58.967Z,21.20
2018-10-19T10:23:27.993Z,19.57
2018-10-19T10:25:57.095Z,18.87
2018-10-19T10:28:26.058Z,22.10
2018-10-19T10:30:55.297Z,20.83
2018-10-19T10:33:24.439Z,21.47
2018-10-19T10:35:54.462Z,20.03
2018-10-19T10:38:23.542Z,22.37
2018-10-19T10:40:52.547Z,21.87
2018-10-19T10:43:21.577Z,22.17
2018-10-19T10:45:50.730Z,22.73
2018-10-19T10:48:19.767Z,22.37
2018-10-19T10:50:48.810Z,19.73
2018-10-19T10:53:18.216Z,21.37
2018-10-19T10:55:47.369Z,23.30
2018-10-19T10:58:16.409Z,21.20
2018-10-19T11:00:45.609Z,19.33
2018-10-19T11:03:14.800Z,21.77
2018-10-19T11:05:44.009Z,21.67
2018-10-19T11:08:13.137Z,20.17
2018-10-19T11:10:42.341Z,19.03
2018-10-19T11:13:11.395Z,20.40
2018-10-19T11:15:40.622Z,20.87
2018-10-19T11:18:10.126Z,21.20
2018-10-19T11:20:39.269Z,21.17
2018-10-19T11:23:08.384Z,20.23
2018-10-19T11:25:37.807Z,21.73
2018-10-19T11:28:06.952Z,19.63
2018-10-19T11:30:36.081Z,19.83
2018-10-19T11:33:05.328Z,24.30
2018-10-19T11:35:34.521Z,21.57
2018-10-19T11:38:03.805Z,22.17
2018-10-19T11:40:35.027Z,19.67
2018-10-19T11:43:04.213Z,20.17
2018-10-19T11:45:33.849Z,20.50
2018-10-19T11:48:03.661Z,22.80
2018-10-19T11:50:33.707Z,19.87
2018-10-19T11:53:02.859Z,21.83
2018-10-19T11:55:31.891Z,20.57
2018-10-19T11:58:01.023Z,21.17
2018-10-19T12:00:29.940Z,19.37
2018-10-19T12:02:59.046Z,20.30
2018-10-19T12:05:28.068Z,20.13
2018-10-19T12:07:57.093Z,17.30
2018-10-19T12:10:26.153Z,18.90
2018-10-19T12:12:55.356Z,19.67
2018-10-19T12:15:24.467Z,16.80
2018-10-19T12:17:53.823Z,17.43
2018-10-19T12:20:22.819Z,17.10
2018-10-19T12:22:51.838Z,17.90
2018-10-19T12:25:21.242Z,18.00
2018-10-19T12:27:50.602Z,18.80
2018-10-19T12:30:19.688Z,18.90
2018-10-19T12:32:48.731Z,19.07
2018-10-19T12:35:17.784Z,19.20
2018-10-19T12:37:46.874Z,19.37
2018-10-19T12:40:16.042Z,18.73
2018-10-19T12:42:45.195Z,18.67
2018-10-19T12:47:26.279Z,19.73
2018-10-19T12:49:55.373Z,19.90
2018-10-19T12:52:24.413Z,18.03
2018-10-19T12:54:53.602Z,19.80
2018-10-19T12:57:22.669Z,19.67
2018-10-19T12:59:52.553Z,20.93
2018-10-19T13:02:21.552Z,19.23
2018-10-19T13:04:50.772Z,21.53
2018-10-19T13:07:19.971Z,20.57
2018-10-19T13:09:49.242Z,20.83
2018-10-19T13:12:18.556Z,21.17
2018-10-19T13:14:47.598Z,21.87
2018-10-19T13:17:16.617Z,20.57
2018-10-19T13:19:45.778Z,21.30
2018-10-19T13:22:15.148Z,20.90
2018-10-19T13:24:44.138Z,22.83
2018-10-19T13:27:13.205Z,19.30
2018-10-19T13:29:42.233Z,19.63
2018-10-19T13:32:11.248Z,18.97
2018-10-19T13:34:40.256Z,19.80
2018-10-19T13:37:35.420Z,23.30
2018-10-19T13:40:04.534Z,20.57
2018-10-19T13:42:33.531Z,20.60
2018-10-19T13:45:02.605Z,20.70
2018-10-19T13:47:31.505Z,20.27
2018-10-19T13:50:00.610Z,23.13
2018-10-19T13:52:29.840Z,21.83
2018-10-19T13:54:58.760Z,22.77
2018-10-19T13:57:27.781Z,21.07
2018-10-19T13:59:56.882Z,23.23
2018-10-19T14:02:25.904Z,19.87
2018-10-19T14:04:55.763Z,22.73
2018-10-19T14:07:24.762Z,20.67
2018-10-19T14:09:53.805Z,20.23
2018-10-19T14:12:22.822Z,20.47
2018-10-19T14:14:51.877Z,21.87
2018-10-19T14:17:20.894Z,21.90
2018-10-19T14:19:49.906Z,21.80
2018-10-19T14:22:18.972Z,19.97
2018-10-19T14:24:48.200Z,20.87
2018-10-19T14:27:17.420Z,18.10
2018-10-19T14:29:46.710Z,21.90
2018-10-19T14:32:16.065Z,21.43
2018-10-19T14:34:45.115Z,22.43
2018-10-19T14:37:14.145Z,21.93
2018-10-19T14:39:43.205Z,25.93
2018-10-19T14:42:12.576Z,24.53
2018-10-19T14:44:41.521Z,23.63
2018-10-19T14:47:11.260Z,22.33
2018-10-19T14:49:40.274Z,22.23
2018-10-19T14:52:09.547Z,24.27
2018-10-19T14:54:38.762Z,24.60
2018-10-19T14:57:07.896Z,24.57
2018-10-19T14:59:37.053Z,24.27
2018-10-19T15:02:06.063Z,24.37
2018-10-19T15:04:35.131Z,22.97
2018-10-19T15:07:04.152Z,25.47
2018-10-19T15:09:33.268Z,26.40
2018-10-19T15:12:02.257Z,27.40
2018-10-19T15:14:31.293Z,23.53
2018-10-19T15:17:00.269Z,24.57
2018-10-19T15:19:29.469Z,27.37
2018-10-19T15:21:58.510Z,26.07
2018-10-19T15:24:27.580Z,26.47
2018-10-19T15:29:15.846Z,32.53
2018-10-19T15:31:44.880Z,35.50
2018-10-19T15:34:13.893Z,33.77
2018-10-19T15:36:43.171Z,35.90
2018-10-19T15:39:12.554Z,37.33
2018-10-19T15:41:41.927Z,36.33
2018-10-19T15:44:11.161Z,34.57
2018-10-19T15:46:40.266Z,36.63
2018-10-19T15:49:09.329Z,36.80
2018-10-19T15:51:38.810Z,35.67
2018-10-19T15:54:07.869Z,37.20
2018-10-19T15:56:37.978Z,30.73
2018-10-19T15:59:06.990Z,34.53
2018-10-19T16:01:36.743Z,32.90
2018-10-19T16:04:05.807Z,29.40
2018-10-19T16:06:34.902Z,33.60
2018-10-19T16:09:05.811Z,30.60
2018-10-19T16:11:35.194Z,30.13
2018-10-19T16:14:05.571Z,28.10
2018-10-19T16:16:34.574Z,30.70
2018-10-19T16:19:03.777Z,28.50
2018-10-19T16:21:33.034Z,26.33
2018-10-19T16:24:02.124Z,27.07
2018-10-19T16:26:31.119Z,25.23
2018-10-19T16:29:00.218Z,25.00
2018-10-19T16:31:29.351Z,25.30
2018-10-19T16:33:59.461Z,25.47
2018-10-19T16:36:28.576Z,24.50
2018-10-19T16:38:57.795Z,26.73
2018-10-19T16:41:26.770Z,25.13
2018-10-19T16:43:56.782Z,25.60
2018-10-19T16:46:26.006Z,26.50
2018-10-19T16:48:54.882Z,24.90
2018-10-19T16:51:23.973Z,24.77
2018-10-19T16:53:53.029Z,25.30
2018-10-19T16:56:22.243Z,23.80
2018-10-19T16:58:51.532Z,25.67
2018-10-19T17:01:20.511Z,26.37
2018-10-19T17:03:49.559Z,25.70
2018-10-19T17:06:18.624Z,24.93
2018-10-19T17:08:47.624Z,26.97
2018-10-19T17:11:16.789Z,25.83
2018-10-19T17:13:45.826Z,24.23
2018-10-19T17:16:15.570Z,27.03
2018-10-19T17:18:44.589Z,25.33
2018-10-19T17:21:13.689Z,25.97
2018-10-19T17:23:42.684Z,24.83
2018-10-19T17:26:11.718Z,26.63
2018-10-19T17:28:40.877Z,25.00
2018-10-19T17:31:09.972Z,25.37
2018-10-19T17:33:39.139Z,25.77
2018-10-19T17:36:08.028Z,25.83
2018-10-19T17:38:36.991Z,25.00
2018-10-19T17:41:06.316Z,24.50
2018-10-19T17:43:35.286Z,25.50
2018-10-19T17:46:04.343Z,25.10
2018-10-19T17:48:34.015Z,24.10
2018-10-19T17:51:03.196Z,26.30
2018-10-19T17:53:33.467Z,26.03
2018-10-19T17:56:02.513Z,25.70
2018-10-19T17:58:31.651Z,26.60
2018-10-19T18:01:01.409Z,26.70
2018-10-19T18:03:30.403Z,26.13
2018-10-19T18:06:00.114Z,25.60
2018-10-19T18:08:29.105Z,26.67
2018-10-19T18:10:58.119Z,27.20
2018-10-19T18:13:28.175Z,28.13
2018-10-19T18:15:57.611Z,29.47
2018-10-19T18:18:26.840Z,27.83
2018-10-19T18:20:56.022Z,29.70
2018-10-19T18:23:25.290Z,29.93
2018-10-19T18:25:54.288Z,29.53
2018-10-19T18:28:23.416Z,26.43
2018-10-19T18:30:52.394Z,27.50
2018-10-19T18:33:21.425Z,28.20
2018-10-19T18:35:50.495Z,27.70
2018-10-19T18:38:19.545Z,28.17
2018-10-19T18:40:48.791Z,27.80
2018-10-19T18:43:17.848Z,28.73
2018-10-19T18:45:46.877Z,29.60
2018-10-19T18:48:16.076Z,27.83
2018-10-19T18:50:45.136Z,30.20
2018-10-19T18:53:14.251Z,30.10
2018-10-19T18:55:43.266Z,26.77
2018-10-19T18:58:12.383Z,27.47
2018-10-19T19:00:41.858Z,28.60
2018-10-19T19:03:11.032Z,26.17
2018-10-19T19:05:40.160Z,27.03
2018-10-19T19:08:09.274Z,27.40
2018-10-19T19:10:39.331Z,26.87
2018-10-19T19:13:13.720Z,28.40
2018-10-19T19:15:42.873Z,31.90
2018-10-19T19:18:11.889Z,32.67
2018-10-19T19:20:41.026Z,29.80
2018-10-19T19:23:10.160Z,27.70
2018-10-19T19:25:44.315Z,28.93
2018-10-19T19:28:13.370Z,30.23
2018-10-19T19:30:42.404Z,28.73
2018-10-19T19:33:16.853Z,27.30
2018-10-19T19:35:45.933Z,26.17
2018-10-19T19:38:15.064Z,26.97
2018-10-19T19:40:49.193Z,25.80
2018-10-19T19:43:18.606Z,27.03
2018-10-19T19:45:48.090Z,26.83
2018-10-19T19:48:22.573Z,27.77
2018-10-19T19:50:52.826Z,28.17
2018-10-19T19:53:21.828Z,27.73
2018-10-19T19:55:50.883Z,26.77
2018-10-19T19:58:20.034Z,28.20
2018-10-19T20:00:49.224Z,27.60
2018-10-19T20:03:18.264Z,27.10
2018-10-19T20:05:47.573Z,27.13
2018-10-19T20:08:16.662Z,28.03
2018-10-19T20:10:45.663Z,27.23
2018-10-19T20:13:14.674Z,28.07
2018-10-19T20:15:44.589Z,30.53
2018-10-19T20:18:13.763Z,27.30
2018-10-19T20:20:42.775Z,27.67
2018-10-19T20:23:11.873Z,28.20
2018-10-19T20:25:41.006Z,30.40
2018-10-19T20:28:10.151Z,34.40
2018-10-19T20:30:39.263Z,35.57
2018-10-19T20:33:08.314Z,36.40
2018-10-19T20:35:37.328Z,36.63
2018-10-19T20:38:06.473Z,35.47
2018-10-19T20:40:35.430Z,35.20
2018-10-19T20:43:04.587Z,39.07
2018-10-19T20:45:33.749Z,37.10
2018-10-19T20:48:03.577Z,41.20
2018-10-19T20:50:32.612Z,39.23
2018-10-19T20:53:02.827Z,39.47
2018-10-19T20:55:31.777Z,39.97
2018-10-19T20:58:01.175Z,40.93
2018-10-19T21:00:30.244Z,39.73
2018-10-19T21:02:59.238Z,43.27
2018-10-19T21:05:28.365Z,41.27
2018-10-19T21:08:04.417Z,41.50
2018-10-19T21:10:33.609Z,41.27
2018-10-19T21:13:02.694Z,38.27
2018-10-19T21:15:31.858Z,39.80
2018-10-19T21:18:01.518Z,40.47
2018-10-19T21:20:30.562Z,41.17
2018-10-19T21:22:59.691Z,41.33
2018-10-19T21:25:28.932Z,40.70
2018-10-19T21:27:58.072Z,39.17
2018-10-19T21:30:27.114Z,40.70
2018-10-19T21:32:56.381Z,44.47
2018-10-19T21:35:25.399Z,44.53
2018-10-19T21:37:54.404Z,41.07
2018-10-19T21:40:23.421Z,40.07
2018-10-19T21:42:52.543Z,42.53
2018-10-19T21:45:21.719Z,41.93
2018-10-19T21:47:50.763Z,39.80
2018-10-19T21:50:22.363Z,38.20
2018-10-19T21:52:52.294Z,38.63
2018-10-19T21:55:21.328Z,39.90
2018-10-19T21:57:50.575Z,39.33
2018-10-19T22:00:19.525Z,38.83
2018-10-19T22:02:48.659Z,36.53
2018-10-19T22:05:17.798Z,41.93
2018-10-19T22:07:46.992Z,40.30
2018-10-19T22:10:15.854Z,39.33
2018-10-19T22:12:44.890Z,40.50
2018-10-19T22:15:14.096Z,42.93
2018-10-19T22:17:43.191Z,42.27
2018-10-19T22:20:12.609Z,42.00
2018-10-19T22:22:41.812Z,39.50
2018-10-19T22:25:10.917Z,41.03
2018-10-19T22:27:39.897Z,39.73
2018-10-19T22:30:09.039Z,39.40
2018-10-19T22:32:38.315Z,40.47
2018-10-19T22:35:07.458Z,42.20
2018-10-19T22:37:36.642Z,39.40
2018-10-19T22:40:05.909Z,40.47
2018-10-19T22:42:35.124Z,40.90
2018-10-19T22:45:04.508Z,45.30
2018-10-19T22:47:34.156Z,43.60
2018-10-19T22:50:03.242Z,46.90
2018-10-19T22:52:32.536Z,42.47
2018-10-19T22:55:01.620Z,41.33
2018-10-19T22:57:31.480Z,42.67
2018-10-19T23:00:01.367Z,45.13
2018-10-19T23:02:30.398Z,42.40
2018-10-19T23:04:59.453Z,44.83
2018-10-19T23:07:28.560Z,47.17
2018-10-19T23:09:58.563Z,38.93
2018-10-19T23:12:27.633Z,40.80
2018-10-19T23:14:56.653Z,42.47
2018-10-19T23:17:25.716Z,42.77
2018-10-19T23:19:54.710Z,44.40
2018-10-19T23:22:24.266Z,41.57
2018-10-19T23:24:53.581Z,43.20
2018-10-19T23:27:22.594Z,44.13
2018-10-19T23:29:51.639Z,42.73
2018-10-19T23:32:20.625Z,46.47
2018-10-19T23:34:49.762Z,41.73
2018-10-19T23:37:18.839Z,40.43
2018-10-19T23:39:48.403Z,45.60
2018-10-19T23:42:18.629Z,45.87
2018-10-19T23:44:47.679Z,44.20
2018-10-19T23:47:16.694Z,47.23
2018-10-19T23:49:46.161Z,46.70
2018-10-19T23:52:15.473Z,46.77
2018-10-19T23:54:45.449Z,43.10
2018-10-19T23:57:14.528Z,44.37
2018-10-19T23:59:43.599Z,47.30
